Ride Results

Strzelecki (11-03-1990)
Ride distance: 80.0 km

Outcomes - Strzelecki (11-03-1990)
Division No. of Entries Retired / DNE Completed Withdrawn Ineligible V/O Percentage Completed
HW 8 - 3 - - 5 37.50%
MW 24 - 17 1 - 6 70.83%
LW 18 - 14 - - 4 77.78%
JN 7 - 3 1 - 3 42.86%
Totals 57 - 37 2 - 18 64.91%
Results - Strzelecki (11-03-1990)
No. Rider Horse Place Time Leg Speeds Total
Km/Hr
H/R bpm
Heavyweight
40 Neville Gilpin Buckskin 1 5:08:50 16.1, 15.0 15.54 34, 47, 46 (Avg:46)
34 Clive Minter Clancy 2 6:45:00 12.0, 11.6 11.85 36, 43, 55 (Avg:49)
33 Alan Tiplady Ben 3 7:25:10 11.4, 10.2 10.78 33, 41, 54 (Avg:47)
29 David Beardsley Splash Heart Rate L2 0:00:00 13.1, 10.9 - 40, 51, 66 (Avg:58)
43 Edward (Ted) Reid Benita Shadow Heart Rate L2 0:00:00 14.8, 9.4 - 40, 55, 64 (Avg:59)
6 Wayne Young Jessie Lame L2 0:00:00 14.9, 11.0 - 34, 42, 49 (Avg:45)
5 Ray Gilpin Bow Lame L1 0:00:00 16.1 - 34, 48 (Avg:48)
42 H Johns Saracus Tahir Heart Rate L1 0:00:00 14.7 - 40, 57 (Avg:57)
Middleweight
50 Mike Sheldon Wen-way Casheen 1 4:37:25 17.7, 16.8 17.30 35, 45, 50 (Avg:47)
32 Don Elliot Nova 2 4:46:35 16.9, 16.5 16.75 33, 47, 56 (Avg:51)
51 Bryan Dupuy Kelkette Park Dean 3 4:59:00 16.9, 15.2 16.05 35, 42, 49 (Avg:45)
28 Jessamy Berkholz Sasha 4 5:26:40 12.9, 16.9 14.69 40, 39, 44 (Avg:41)
45 Irene Harris Tarrangower Kamal 5 5:38:10 15.9, 12.7 14.19 35, 43, 50 (Avg:46)
53 Debi Chisholm Yarraview Georgette 6 5:38:12 15.8, 12.8 14.19 42, 50, 55 (Avg:52)
55 Ross Chisholm He-S Jake 7 5:38:14 15.8, 12.8 14.19 38, 44, 55 (Avg:49)
39 Sandra Faulkner Money 8 5:45:30 12.9, 15.0 13.89 36, 47, 58 (Avg:52)
57 Ken Stephens Turbo 9 6:18:00 12.9, 12.4 12.70 34, 47, 47 (Avg:47)
16 Jezza Cicero Kezza 10 6:30:20 11.2, 13.5 12.30 40, 47, 53 (Avg:50)
17 A. Paterken Robbie 11 6:32:20 12.4, 11.9 12.23 34, 44, 48 (Avg:46)
47 Richard Ryhorchuk Muskegs Misquitash 12 6:51:10 12.0, 11.3 11.67 36, 45, 46 (Avg:45)
35 Craig Ryhorchuk Muskegs Smokey Joe 13 6:51:15 12.0, 11.3 11.67 38, 46, 53 (Avg:49)
49 Keith Whitehead Vardi 14 6:54:00 12.2, 11.0 11.59 33, 50, 48 (Avg:49)
18 M. Smith Jerry By Jove 15 6:55:00 12.6, 10.6 11.57 35, 45, 50 (Avg:47)
20 Tim Perks Kainui Park Danube 16 7:02:18 13.5, 9.7 11.37 33, 43, 52 (Avg:47)
19 Buddy Rojek Brendalla 17 7:02:55 13.5, 9.7 11.35 53, 55, 60 (Avg:57)
26 Ken Clarke Sam Heart Rate L2 0:00:00 17.9, 14.9 - 32, 48, 68 (Avg:58)
11 Sandra Garnham Kit Kat Lame L2 0:00:00 13.2, 11.4 - 33, 50, 55 (Avg:52)
48 Julia Gauci Sayiba Tibult Lame L2 0:00:00 12.8, 14.2 - 30, 46, 55 (Avg:50)
4 Ron Morton Southwinds Banjo Heart Rate L2 0:00:00 18.1, 11.8 - 40, 51, 66 (Avg:58)
54 Ross Chisholm Desert Tassin Lame L1 0:00:00 16.1 - 38, 55 (Avg:55)
7 Tony Minter Brogan Lame L1 0:00:00 12.0 - 32, 44 (Avg:44)
15 Tom Reid Benita Samira Widthdrawn P/R 0:00:00 - - 43
Lightweight
21 S. Clarke Sheeba 1 4:31:00 18.1, 17.2 17.71 37, 48, 56 (Avg:52)
1 Jane Sheldon Monterey Marita 2 4:37:20 17.7, 16.8 17.31 32, 40, 48 (Avg:44)
25 Sally Cowan Charlies Girl 3 5:06:00 16.9, 14.6 15.69 29, 44, 56 (Avg:50)
22 Cherie Cowan Waitara Red Ned 4 5:15:20 16.9, 13.8 15.22 28, 50, 54 (Avg:52)
52 Linda McKay Dominic 5 5:26:42 12.9, 16.9 14.69 38, 43, 54 (Avg:48)
46 Robyn Harris Major William 6 6:15:40 14.9, 11.1 12.78 36, 50, 50 (Avg:50)
36 Samantha Obrien Ajana Storm Angel 7 6:18:29 14.8, 11.0 12.68 40, 44, 50 (Avg:47)
23 Sue Deering Toffee 8 6:26:00 13.1, 11.8 12.44 32, 42, 52 (Avg:47)
56 Clint Cowan Stir Fry 9 6:27:00 11.2, 13.7 12.40 32, 42, 53 (Avg:47)
31 Anne Moseley Beau 10 6:44:00 12.9, 10.9 11.88 34, 42, 45 (Avg:43)
38 Gillian Ryhorchuk Wamrums Moonlight 11 6:51:00 12.0, 11.3 11.68 39, 38, 49 (Avg:43)
8 Jean Morton Southwinds Samantha 12 6:54:20 13.3, 10.2 11.58 33, 42, 54 (Avg:48)
37 Paul Marsh Southwinds Scarlet 13 6:57:00 13.3, 10.1 11.51 29, 45, 57 (Avg:51)
2 Jenni Van der Koogh Saracus Fiducia 14 7:07:05 11.9, 10.5 11.24 36, 50, 52 (Avg:51)
10 Robyn Albers Monterey Cortez Heart Rate L2 0:00:00 17.5, 7.6 - 38, 55, 77 (Avg:66)
9 Melinda Howell Waitara Gemina Bundie Heart Rate L2 0:00:00 15.7, 13.0 - 38, 49, 65 (Avg:57)
14 Nina Maselli Cabby Lame L2 0:00:00 11.9, 10.5 - 38, 49, 51 (Avg:50)
30 Tracey Stewart Carter Heart Rate L2 0:00:00 17.5, 17.3 - 34, 43, 75 (Avg:59)
Junior
12 Patrick Sheldon Saracus Chiffon 1 4:31:00 17.7, 17.6 17.71 38, 44, 54 (Avg:49)
13 Matt Milne Kalif 2 4:35:15 18.0, 16.8 17.44 35, 44, 54 (Avg:49)
24 Kerrie Gabb Krs 3 5:40:10 13.2, 15.0 14.11 34, 39, 46 (Avg:42)
3 Simone Banfield Smokey Heart Rate L2 0:00:00 11.2, 13.9 - 32, 42, 65 (Avg:53)
41 C (?) Butcher Scotty Heart Rate L2 0:00:00 17.9, 14.9 - 35, 52, 69 (Avg:60)
44 J Faulkner Penny Heart Rate L2 0:00:00 12.9, 14.9 - 43, 47, 74 (Avg:60)
27 Leanne Duff Starlight Widthdrawn P/R 0:00:00 - - 0